Main page
METAR-TAF:

METAR-TAF

Airports :

Norman Manley International Airport

Kingston, Jamaica

latitude: 17-56N, longitude: 076-47W, elevation: 3 m

Current weather observation

The report was made 31 minutes ago, at 11:00 UTC
Wind 4 kt from the North/Northwest
Temperature 28°C
Humidity 70%
Pressure 1013 hPa
Visibility 10 km or more
Few clouds at a height of 2200 ft, Cumulonimbus.
Broken clouds at a height of 9000 ft

METAR: MKJP 151100Z 34004KT 9999 FEW022CB BKN090 28/22 Q1013

Time: 06:31 (11:31 UTC)

Forecast

The report was made 6 hours and 16 minutes ago, at 05:15 UTC
Forecast valid from 15 at 06 UTC to 16 at 06 UTC
Wind 5 kt from the North
Visibility 10 km or more
Few clouds at a height of 2400 ft
Becoming
from 15 at 14 UTC to 15 at 16 UTC
Wind 20 kt from the Southeast
Becoming
from 16 at 01 UTC to 16 at 03 UTC
Wind 5 kt from the North

TAF: MKJP 150515Z 1506/1606 35005KT 9999 FEW024 BECMG 1514/1516 14020KT BECMG 1601/1603 35005KT

Weather observations and forecasts of more than 4000 airports (METAR and TAF reports).

The available stations are represented by yellow and red dots on the map.

Hover mouse over dot to see the name of the station.

Then click to see weather observations and forecasts.

To change the map : click on the green buttons with a black cross to zoom in, on the green button with a dash to zoom out, or on the green arrows for adjacent maps.


METAR-TAF: